ePrivacy and GPDR Cookie Consent by Cookie Consent
EmailTwitter


Surface observations / Europe / LIRF (16242)

Regions: Quebec | Canada | USA | Europe | France | UK | Elsewhere
Station
Display
Info & Location for LIRF (16242) | Help decoding METAR

Weather Conditions observed on 2022/12/04 at 04:50 UTC (LIRF)

Sky conditions: variable clouds.

Temperature: 13.0 Celsius.

Dewpoint: 11.0 Celsius.

Relative Humidity: 88%

Winds: Southeast at 9 km/h or 5 knots.

Mean Sea level Pressure: 101.20 kilopascals.

Horizontal visibility: 6.21 statute miles or 9.94 kilometers.

Coded METAR:

LIRF 040450Z 13005KT 9999 FEW030 SCT045 13/11 Q1012 NOSIG=